createdAt,value
2022-09-14T00:00:33.295Z,10.60
2022-09-14T00:05:55.645Z,11.50
2022-09-14T00:11:14.648Z,11.70
2022-09-14T00:16:39.591Z,11.10
2022-09-14T00:21:45.730Z,13.00
2022-09-14T00:26:48.219Z,10.40
2022-09-14T00:31:51.181Z,12.60
2022-09-14T00:36:54.461Z,11.80
2022-09-14T00:41:57.656Z,11.00
2022-09-14T00:47:02.963Z,11.80
2022-09-14T00:52:10.946Z,13.60
2022-09-14T00:57:16.082Z,15.60
2022-09-14T01:02:21.817Z,13.70
2022-09-14T01:07:43.293Z,13.50
2022-09-14T01:13:27.980Z,18.00
2022-09-14T01:18:38.399Z,14.10
2022-09-14T01:23:55.236Z,14.20
2022-09-14T01:29:17.176Z,17.40
2022-09-14T01:34:29.347Z,14.40
2022-09-14T01:39:35.887Z,17.80
2022-09-14T01:44:46.064Z,16.40
2022-09-14T01:49:54.761Z,16.50
2022-09-14T01:55:18.672Z,17.00
2022-09-14T02:00:25.802Z,19.00
2022-09-14T02:05:39.894Z,18.90
2022-09-14T02:10:43.422Z,16.70
2022-09-14T02:15:46.737Z,16.20
2022-09-14T02:21:03.164Z,18.60
2022-09-14T02:26:06.115Z,16.60
2022-09-14T02:31:24.203Z,15.50
2022-09-14T02:36:38.468Z,15.60
2022-09-14T02:41:57.508Z,17.30
2022-09-14T02:47:12.579Z,18.70
2022-09-14T02:52:36.766Z,19.40
2022-09-14T02:58:04.663Z,21.50
2022-09-14T03:03:09.169Z,9.80
2022-09-14T03:08:12.370Z,18.40
2022-09-14T03:13:15.808Z,18.00
2022-09-14T03:18:18.957Z,15.60
2022-09-14T03:23:21.521Z,17.80
2022-09-14T03:28:23.700Z,19.00
2022-09-14T03:33:25.727Z,21.10
2022-09-14T03:38:30.161Z,16.20
2022-09-14T03:43:33.416Z,17.20
2022-09-14T03:48:36.102Z,16.00
2022-09-14T03:53:40.282Z,15.50
2022-09-14T03:58:44.711Z,18.20
2022-09-14T04:03:48.713Z,17.30
2022-09-14T04:08:50.795Z,16.50
2022-09-14T04:13:52.872Z,13.00
2022-09-14T04:18:54.879Z,15.50
2022-09-14T04:24:16.195Z,16.70
2022-09-14T04:29:19.292Z,17.90
2022-09-14T04:34:21.103Z,33.20
2022-09-14T04:39:24.319Z,23.40
2022-09-14T04:44:27.409Z,29.00
2022-09-14T04:49:33.003Z,18.90
2022-09-14T04:54:36.012Z,30.90
2022-09-14T04:59:38.055Z,34.30
2022-09-14T05:04:39.819Z,17.80
2022-09-14T05:09:43.744Z,31.20
2022-09-14T05:14:46.921Z,47.70
2022-09-14T05:19:49.612Z,21.20
2022-09-14T05:24:51.548Z,24.80
2022-09-14T05:29:53.867Z,31.50
2022-09-14T05:34:56.027Z,27.60
2022-09-14T05:39:59.187Z,21.10
2022-09-14T05:45:01.540Z,30.40
2022-09-14T05:50:04.650Z,24.30
2022-09-14T05:55:08.256Z,23.60
2022-09-14T06:00:12.226Z,23.70
2022-09-14T06:05:15.160Z,20.10
2022-09-14T06:10:18.832Z,20.10
2022-09-14T06:15:24.843Z,14.70
2022-09-14T06:20:27.979Z,18.20
2022-09-14T06:25:31.222Z,22.60
2022-09-14T06:30:33.982Z,17.20
2022-09-14T06:35:37.207Z,17.80
2022-09-14T06:40:39.284Z,24.60
2022-09-14T06:45:41.965Z,24.10
2022-09-14T06:50:44.857Z,21.10
2022-09-14T06:55:47.671Z,22.90
2022-09-14T07:00:50.686Z,13.60
2022-09-14T07:06:01.443Z,12.30
2022-09-14T07:11:06.014Z,10.90
2022-09-14T07:16:08.787Z,18.90
2022-09-14T07:21:14.833Z,15.40
2022-09-14T07:26:20.691Z,11.70
2022-09-14T07:31:27.485Z,14.30
2022-09-14T07:36:34.774Z,10.30
2022-09-14T07:41:39.216Z,9.20
2022-09-14T07:46:43.126Z,9.60
2022-09-14T07:51:46.031Z,12.20
2022-09-14T07:56:50.408Z,9.20
2022-09-14T08:01:52.293Z,9.10
2022-09-14T08:06:54.664Z,7.40
2022-09-14T08:11:58.071Z,6.50
2022-09-14T08:17:00.635Z,6.30
2022-09-14T08:22:04.743Z,8.00
2022-09-14T08:27:07.074Z,7.80
2022-09-14T08:32:12.564Z,5.20
2022-09-14T08:37:15.078Z,9.90
2022-09-14T08:42:20.433Z,5.10
2022-09-14T08:47:38.460Z,9.30
2022-09-14T08:52:56.246Z,9.90
2022-09-14T08:58:31.245Z,10.00
2022-09-14T09:03:39.233Z,6.00
2022-09-14T09:08:44.665Z,6.20
2022-09-14T09:13:53.422Z,5.60
2022-09-14T09:19:02.231Z,6.30
2022-09-14T09:24:17.903Z,4.30
2022-09-14T09:29:20.685Z,4.60
2022-09-14T09:34:28.751Z,4.30
2022-09-14T09:39:32.431Z,2.80
2022-09-14T09:45:01.761Z,8.00
2022-09-14T09:50:26.696Z,2.40
2022-09-14T09:55:38.006Z,6.60
2022-09-14T10:00:40.178Z,2.30
2022-09-14T10:05:43.009Z,2.60
2022-09-14T10:10:46.084Z,4.30
2022-09-14T10:15:49.846Z,3.10
2022-09-14T10:20:53.278Z,4.80
2022-09-14T10:26:13.590Z,2.10
2022-09-14T10:31:18.562Z,6.50
2022-09-14T10:36:31.988Z,1.00
2022-09-14T10:41:57.344Z,1.30
2022-09-14T10:47:40.094Z,1.10
2022-09-14T10:53:03.102Z,2.20
2022-09-14T10:58:28.728Z,3.10
2022-09-14T11:03:43.972Z,1.50
2022-09-14T11:08:56.152Z,3.70
2022-09-14T11:14:24.978Z,3.30
2022-09-14T11:19:54.752Z,3.60
2022-09-14T11:25:13.326Z,1.80
2022-09-14T11:30:22.758Z,0.80
2022-09-14T11:35:46.394Z,7.40
2022-09-14T11:40:57.435Z,1.60
2022-09-14T11:46:09.764Z,2.80
2022-09-14T11:51:36.738Z,1.70
2022-09-14T11:56:39.990Z,0.80
2022-09-14T12:01:43.369Z,1.60
2022-09-14T12:06:54.407Z,4.10
2022-09-14T12:12:03.582Z,1.40
2022-09-14T12:22:49.398Z,1.90
2022-09-14T12:27:53.815Z,4.10
2022-09-14T12:32:56.081Z,5.40
2022-09-14T12:38:18.800Z,1.60
2022-09-14T12:43:32.539Z,1.60
2022-09-14T12:48:48.374Z,4.70
2022-09-14T12:54:04.153Z,1.10
2022-09-14T12:59:30.439Z,4.50
2022-09-14T13:04:35.025Z,2.10
2022-09-14T13:09:37.351Z,1.60
2022-09-14T13:14:56.434Z,4.70
2022-09-14T13:20:05.921Z,5.70
2022-09-14T13:25:34.217Z,1.80
2022-09-14T13:30:37.792Z,2.20
2022-09-14T13:35:49.402Z,4.80
2022-09-14T13:40:56.720Z,4.40
2022-09-14T13:46:00.333Z,1.70
2022-09-14T13:51:06.506Z,5.20
2022-09-14T13:56:23.477Z,2.50
2022-09-14T14:01:30.147Z,5.20
2022-09-14T14:06:37.807Z,2.60
2022-09-14T14:11:55.341Z,1.40
2022-09-14T14:17:24.469Z,1.60
2022-09-14T14:22:34.244Z,4.50
2022-09-14T14:27:43.443Z,2.30
2022-09-14T14:32:56.905Z,4.00
2022-09-14T14:37:59.525Z,5.00
2022-09-14T14:43:04.084Z,2.90
2022-09-14T14:48:10.325Z,2.10
2022-09-14T14:53:13.646Z,2.90
2022-09-14T14:58:18.358Z,3.30
2022-09-14T15:03:21.232Z,3.70
2022-09-14T15:08:24.618Z,1.50
2022-09-14T15:13:28.021Z,3.30
2022-09-14T15:18:30.264Z,2.10
2022-09-14T15:23:32.822Z,2.20
2022-09-14T15:28:38.491Z,5.10
2022-09-14T15:33:41.874Z,4.80
2022-09-14T15:38:44.499Z,2.80
2022-09-14T15:43:47.725Z,4.40
2022-09-14T15:48:49.864Z,2.20
2022-09-14T15:53:52.942Z,6.50
2022-09-14T15:59:01.041Z,4.90
2022-09-14T16:04:09.623Z,2.20
2022-09-14T16:09:17.411Z,1.70
2022-09-14T16:14:19.934Z,3.80
2022-09-14T16:19:22.967Z,4.00
2022-09-14T16:24:26.833Z,2.90
2022-09-14T16:29:29.233Z,2.50
2022-09-14T16:34:32.009Z,4.70
2022-09-14T16:39:35.666Z,7.10
2022-09-14T16:44:37.887Z,8.00
2022-09-14T16:49:39.851Z,2.00
2022-09-14T16:54:43.773Z,5.70
2022-09-14T16:59:46.753Z,8.60
2022-09-14T17:04:48.839Z,5.70
2022-09-14T17:09:53.876Z,4.70
2022-09-14T17:14:55.702Z,5.60
2022-09-14T17:19:58.245Z,3.80
2022-09-14T17:25:00.790Z,3.70
2022-09-14T17:30:03.303Z,2.30
2022-09-14T17:35:08.182Z,2.60
2022-09-14T17:40:10.824Z,2.50
2022-09-14T17:45:13.190Z,3.60
2022-09-14T17:50:16.631Z,2.70
2022-09-14T17:55:20.071Z,1.70
2022-09-14T18:00:22.927Z,2.20
2022-09-14T18:05:26.119Z,6.00
2022-09-14T18:10:29.642Z,10.00
2022-09-14T18:15:35.935Z,2.30
2022-09-14T18:20:41.997Z,10.20
2022-09-14T18:25:45.864Z,3.40
2022-09-14T18:30:49.535Z,6.00
2022-09-14T18:35:54.550Z,2.60
2022-09-14T18:41:10.361Z,3.00
2022-09-14T18:46:18.800Z,3.70
2022-09-14T18:51:27.749Z,6.30
2022-09-14T18:56:36.075Z,3.70
2022-09-14T19:01:42.450Z,8.10
2022-09-14T19:06:46.408Z,2.70
2022-09-14T19:11:53.884Z,5.00
2022-09-14T19:16:58.924Z,4.10
2022-09-14T19:22:03.107Z,5.40
2022-09-14T19:27:08.172Z,3.70
2022-09-14T19:32:11.748Z,3.30
2022-09-14T19:37:14.502Z,6.70
2022-09-14T19:42:18.791Z,6.40
2022-09-14T19:47:25.018Z,6.60
2022-09-14T19:52:28.844Z,6.30
2022-09-14T19:57:32.400Z,6.10
2022-09-14T20:02:35.868Z,9.70
2022-09-14T20:07:39.165Z,7.10
2022-09-14T20:12:41.940Z,6.90
2022-09-14T20:17:47.342Z,14.50
2022-09-14T20:22:51.191Z,8.90
2022-09-14T20:27:53.780Z,7.10
2022-09-14T20:32:56.834Z,8.60
2022-09-14T20:37:59.940Z,6.90
2022-09-14T20:43:02.664Z,10.10
2022-09-14T20:48:05.863Z,10.20
2022-09-14T20:53:08.129Z,7.20
2022-09-14T20:58:11.576Z,8.70
2022-09-14T21:03:14.967Z,9.60
2022-09-14T21:08:21.953Z,10.20
2022-09-14T21:13:24.844Z,9.70
2022-09-14T21:18:27.146Z,11.40
2022-09-14T21:23:30.115Z,9.50
2022-09-14T21:28:35.005Z,10.40
2022-09-14T21:33:38.738Z,9.30
2022-09-14T21:38:42.209Z,7.80
2022-09-14T21:43:45.699Z,9.50
2022-09-14T21:48:49.216Z,8.40
2022-09-14T21:54:00.043Z,8.50
2022-09-14T21:59:08.698Z,13.20
2022-09-14T22:04:23.068Z,7.40
2022-09-14T22:09:28.933Z,8.50
2022-09-14T22:14:34.958Z,7.50
2022-09-14T22:19:37.735Z,7.60
2022-09-14T22:24:42.022Z,14.60
2022-09-14T22:29:44.612Z,10.20
2022-09-14T22:34:50.580Z,9.90
2022-09-14T22:39:54.177Z,11.20
2022-09-14T22:44:57.288Z,13.10
2022-09-14T22:49:59.718Z,14.30
2022-09-14T22:55:02.132Z,11.40
2022-09-14T23:00:08.669Z,9.70
2022-09-14T23:05:11.081Z,11.20
2022-09-14T23:10:14.750Z,10.80
2022-09-14T23:15:17.055Z,9.50
2022-09-14T23:20:19.442Z,13.70
2022-09-14T23:25:21.674Z,10.20
2022-09-14T23:30:23.900Z,11.00
2022-09-14T23:35:27.028Z,10.00
2022-09-14T23:40:29.686Z,10.20
2022-09-14T23:45:33.293Z,14.40
2022-09-14T23:50:36.576Z,8.30
2022-09-14T23:55:42.249Z,9.30
